This is the latest recevied weather packets stored in our database for station/object OE6JUE. If no packets are shown the sender has not sent any weather packets the latest 1 day(s).
| Time | Temp. | Humidity | Pressure | Rain* | Wind** | Luminosity | Snow |
|---|---|---|---|---|---|---|---|
| 1778091976 | 17.22° C | 63% | 1009.6 hPa | 0 mm | - | - | - |
| 1778091676 | 17.22° C | 63% | 1009.6 hPa | 0 mm | - | - | - |
| 1778091376 | 17.22° C | 63% | 1009.5 hPa | 0 mm | - | - | - |
| 1778091076 | 17.22° C | 63% | 1009.6 hPa | 0 mm | - | - | - |
| 1778090776 | 17.78° C | 61% | 1009.7 hPa | 0 mm | - | - | - |
| 1778090476 | 17.78° C | 61% | 1009.7 hPa | - | - | - | - |
| 1778089276 | 17.78° C | 60% | 1009.7 hPa | 0 mm | - | - | - |
| 1778088676 | 17.78° C | 60% | 1009.6 hPa | 0 mm | - | - | - |
| 1778087776 | 18.33° C | 60% | 1009.5 hPa | 0 mm | - | - | - |
| 1778087476 | 18.33° C | 60% | 1009.5 hPa | 0 mm | - | - | - |
| 1778086276 | 19.44° C | 57% | 1009.6 hPa | 0 mm | - | - | - |
| 1778085977 | 19.44° C | 57% | 1009.6 hPa | 0 mm | - | - | - |
| 1778085676 | 18.89° C | 58% | 1009.6 hPa | 0 mm | - | - | - |
| 1778085076 | 19.44° C | 57% | 1009.7 hPa | 0 mm | - | - | - |
| 1778084176 | 18.89° C | 58% | 1009.9 hPa | 0 mm | - | - | - |
| 1778082376 | 20° C | 54% | 1010 hPa | 0 mm | - | - | - |
| 1778081776 | 19.44° C | 54% | 1010.2 hPa | 0 mm | - | - | - |
| 1778081476 | 20° C | 54% | 1010 hPa | 0 mm | - | - | - |
| 1778079376 | 20° C | 53% | 1010 hPa | 0 mm | - | - | - |
| 1778077576 | 21.67° C | 50% | 1009.9 hPa | 0 mm | - | - | - |
| 1778076676 | 21.67° C | 50% | 1009.8 hPa | 0 mm | - | - | - |
| 1778075775 | 22.22° C | 48% | 1010 hPa | 0 mm | - | - | - |
| 1778075476 | 21.67° C | 50% | 1010.2 hPa | 0 mm | - | - | - |
| 1778074857 | 21.67° C | 47% | 1010.1 hPa | 0 mm | - | - | - |
| 1778074256 | 22.22° C | 46% | 1009.9 hPa | 0 mm | - | - | - |
* Rain latest hour (hover to see other rain measurements)
** Current wind speed in m/s (hover to see current wind gust speed)